Lyminge, United Kingdom
Current Conditions -  °F | °C
As of 12:50 PM on Wednesday 26 Nov 2014 (Local Time) from EGMD Reporting Station
Broken Clouds Broken Clouds  
Wind Chill: 12°   Ceiling: 700
Heat Index: 12°   Visibility: 4mi
Dew Point: 11°   Wind: 2mph
Humidity: 94%   Direction: 110°ESE
Pressure: 29.85"   Gusts: NA
Location:  51.13°N, 1.09°E
Report Text: EGMD 261250Z 11002KT 6000 BKN007 12/11 Q1011
Loading
Personal Weather Stations






























Interactive Weather Map New forecast layout! Learn more

10-Day Weather Forecast

Advertisements
Track Severe Weather on mobile